Latest Weather Observations for Cessnock Airport

IDN60801

Issued at 2:32 am EST Sunday 20 August 2017 (issued every 30 minutes, with the page automatically refreshed every 10 minutes)

About weather observations | Map of weather stations | Latest weather observations for NSW | Other Formats
Station Details ID: 061260 Name: CESSNOCK AIRPORT AWS Lat: -32.79 Lon: 151.34 Height: 61.0 m
Data from the previous 72 hours. | See also: Recent months at Cessnock Airport
Date/Time
EST
Temp
°C
App
Temp
°C
Dew
Point
°C
Rel
Hum
%
Delta-T
°C
Wind Press
QNH
hPa
Press
MSL
hPa
Rain since
9am
mm
Dir  Spd
km/h
Gust
km/h
Spd
kts
Gust
kts
20/02:30am 7.1 3.8 0.3 62 2.7 W 7 11 4 6 1021.1 1021.2 0.0
20/02:00am 7.5 3.5 0.7 62 2.7 W 11 17 6 9 1021.1 1021.2 0.0
20/01:30am 8.0 4.2 1.6 64 2.6 SW 11 19 6 10 1021.1 1021.2 0.0
20/01:00am 7.5 3.7 2.0 68 2.3 WSW 11 15 6 8 1021.0 1021.1 0.0
20/12:30am 7.6 4.1 3.3 74 1.8 SW 11 15 6 8 1020.9 1021.0 0.0
20/12:00am 3.2 0.5 0.3 81 1.1 W 4 7 2 4 1021.0 1021.1 0.0
 
Date/Time
EST
Temp
°C
App
Temp
°C
Dew
Point
°C
Rel
Hum
%
Delta-T
°C
Wind Press
QNH
hPa
Press
MSL
hPa
Rain since
9am
mm
Dir  Spd
km/h
Gust
km/h
Spd
kts
Gust
kts
19/11:30pm 2.9 -0.4 -0.2 80 1.1 SW 7 11 4 6 1021.1 1021.2 0.0
19/11:00pm 4.3 1.3 2.0 85 0.9 W 7 11 4 6 1020.9 1021.0 0.0
19/10:30pm 3.1 -0.2 -0.2 79 1.2 W 7 9 4 5 1021.2 1021.3 0.0
19/10:00pm 2.8 0.7 -0.8 77 1.3 CALM 0 0 0 0 1021.3 1021.4 0.0
19/09:30pm 2.8 0.6 -1.2 75 1.4 CALM 0 6 0 3 1021.1 1021.2 0.0
19/09:00pm 4.2 0.8 -0.6 71 1.8 W 7 9 4 5 1020.8 1020.9 0.0
19/08:30pm 3.5 -0.4 -1.3 71 1.7 W 9 9 5 5 1020.6 1020.7 0.0
19/08:00pm 4.5 0.7 -1.1 67 2.1 W 9 13 5 7 1020.2 1020.3 0.0
19/07:30pm 5.8 1.6 -1.1 61 2.6 WSW 11 15 6 8 1019.9 1020.0 0.0
19/07:00pm 8.0 4.5 -1.2 52 3.5 SSW 7 9 4 5 1019.5 1019.6 0.0
19/06:30pm 10.8 7.5 -1.6 42 4.9 S 6 7 3 4 1019.2 1019.3 0.0
19/06:00pm 11.4 7.4 -2.0 39 5.2 SW 9 13 5 7 1018.8 1018.9 0.0
19/05:30pm 12.8 8.8 -2.3 35 5.9 SW 9 17 5 9 1018.4 1018.5 0.0
19/05:00pm 14.2 9.1 -2.2 32 6.5 SSW 15 24 8 13 1017.8 1017.9 0.0
19/04:30pm 15.0 8.9 -2.0 31 6.9 SSW 20 30 11 16 1017.4 1017.5 0.0
19/04:00pm 15.3 8.9 -1.7 31 6.9 SW 22 35 12 19 1017.2 1017.3 0.0
19/03:30pm 15.8 8.6 -1.7 30 7.2 SSW 26 39 14 21 1016.9 1017.0 0.0
19/03:00pm 15.2 8.7 -2.7 29 7.1 SSW 22 39 12 21 1016.6 1016.7 0.0
19/02:30pm 16.4 9.2 -2.1 28 7.6 WSW 26 39 14 21 1016.3 1016.3 0.0
19/02:00pm 15.8 9.7 -2.2 29 7.3 SSW 20 37 11 20 1016.3 1016.3 0.0
19/01:30pm 15.6 8.6 -3.8 26 7.6 SW 24 37 13 20 1016.1 1016.1 0.0
19/01:00pm 15.5 8.5 -3.4 27 7.5 SW 24 35 13 19 1016.2 1016.2 0.0
19/12:30pm 16.0 9.9 -2.0 29 7.4 SW 20 43 11 23 1016.2 1016.2 0.0
19/12:00pm 15.1 8.2 -2.3 30 7.0 SW 24 37 13 20 1016.5 1016.6 0.0
19/11:30am 14.9 8.1 -2.1 31 6.9 SW 24 37 13 20 1016.7 1016.8 0.0
19/11:00am 15.1 9.1 -1.5 32 6.8 SW 20 37 11 20 1016.8 1016.9 0.0
19/10:30am 13.8 6.9 -3.0 31 6.6 WSW 24 41 13 22 1017.2 1017.3 0.0
19/10:00am 13.0 6.1 -2.9 33 6.2 WSW 24 37 13 20 1017.2 1017.3 0.0
19/09:30am 12.7 7.5 -2.7 34 6.0 WSW 15 28 8 15 1017.3 1017.4 0.0
19/09:00am 12.4 7.7 -1.5 38 5.5 WSW 13 24 7 13 1017.1 1017.2 0.0
19/08:30am 11.7 7.1 -1.4 40 5.2 WNW 13 22 7 12 1016.8 1016.9 0.0
19/08:00am 10.1 6.0 -0.4 48 4.2 NNW 11 17 6 9 1016.3 1016.3 0.0
19/07:30am 9.1 5.3 -0.5 51 3.8 NNW 9 15 5 8 1016.0 1016.0 0.0
19/07:00am 8.0 4.2 -0.7 54 3.4 NNW 9 17 5 9 1015.7 1015.7 0.0
19/06:30am 7.6 3.0 -1.1 54 3.3 NNW 13 19 7 10 1015.4 1015.4 0.0
19/06:00am 7.5 3.7 -0.9 55 3.2 NNW 9 15 5 8 1015.2 1015.2 0.0
19/05:30am 8.1 3.9 -0.9 53 3.5 NNW 11 15 6 8 1014.7 1014.7 0.0
19/05:00am 8.5 5.0 -1.0 51 3.7 NNW 7 15 4 8 1014.5 1014.5 0.0
19/04:30am 8.7 4.9 -0.9 51 3.7 NW 9 17 5 9 1013.9 1013.9 0.0
19/04:00am 9.6 6.2 -0.9 48 4.1 NW 7 17 4 9 1013.5 1013.5 0.0
19/03:30am 9.4 5.6 -0.8 49 4.0 WNW 9 20 5 11 1013.3 1013.3 0.0
19/03:00am 9.3 5.5 -0.8 49 4.0 WNW 9 20 5 11 1013.4 1013.4 0.0
19/02:30am 10.2 6.5 -0.3 48 4.2 WSW 9 24 5 13 1013.2 1013.2 0.0
19/02:00am 10.2 4.5 -0.6 47 4.3 WSW 19 35 10 19 1012.9 1012.9 0.0
19/01:30am 10.7 4.1 -0.4 46 4.5 W 24 37 13 20 1012.7 1012.7 0.0
19/01:00am 10.9 3.5 -0.5 45 4.6 W 28 52 15 28 1012.6 1012.6 0.0
19/12:30am 11.2 3.8 -0.6 44 4.7 W 28 56 15 30 1012.3 1012.3 0.0
19/12:29am 11.2 3.8 -0.6 44 4.7 W 28 56 15 30 1012.3 1012.3 0.0
19/12:00am 11.3 4.7 -0.5 44 4.8 W 24 41 13 22 1012.5 1012.5 0.0
 
Date/Time
EST
Temp
°C
App
Temp
°C
Dew
Point
°C
Rel
Hum
%
Delta-T
°C
Wind Press
QNH
hPa
Press
MSL
hPa
Rain since
9am
mm
Dir  Spd
km/h
Gust
km/h
Spd
kts
Gust
kts
18/11:30pm 11.4 4.0 -0.4 44 4.8 W 28 52 15 28 1012.2 1012.2 0.0
18/11:00pm 11.5 3.4 -0.3 44 4.8 W 32 50 17 27 1012.3 1012.3 0.0
18/10:30pm 11.7 3.4 -0.1 44 4.8 W 33 61 18 33 1012.4 1012.4 0.0
18/10:00pm 11.8 4.1 -0.4 43 5.0 WSW 30 54 16 29 1012.8 1012.8 0.0
18/09:42pm 11.9 4.6 -0.3 43 5.0 W 28 48 15 26 1013.0 1013.0 0.0
18/09:30pm 12.0 4.7 0.1 44 4.9 W 28 43 15 23 1012.9 1012.9 0.0
18/09:28pm 11.9 4.6 0.1 44 4.9 W 28 46 15 25 1012.9 1012.9 0.0
18/09:00pm 12.0 5.5 0.1 44 4.9 W 24 41 13 22 1012.9 1012.9 0.0
18/08:30pm 11.9 4.9 -0.3 43 5.0 W 26 46 14 25 1012.8 1012.8 0.0
18/08:22pm 12.1 4.8 -0.1 43 5.0 W 28 48 15 26 1012.7 1012.7 0.0
18/08:00pm 11.5 5.4 0.3 46 4.6 W 22 39 12 21 1012.6 1012.6 0.0
18/07:30pm 11.7 5.3 0.8 47 4.6 WNW 24 43 13 23 1012.6 1012.6 0.0
18/07:00pm 11.9 6.3 1.0 47 4.6 WNW 20 33 11 18 1012.7 1012.7 0.0
18/06:30pm 12.1 6.1 0.8 46 4.7 W 22 39 12 21 1012.6 1012.6 0.0
18/06:05pm 12.6 5.3 0.0 42 5.2 W 28 54 15 29 1012.0 1012.0 0.0
18/06:00pm 12.8 7.1 0.5 43 5.2 W 20 41 11 22 1012.0 1012.0 0.0
18/05:30pm 13.3 6.0 0.0 40 5.5 W 28 48 15 26 1011.5 1011.5 0.0
18/05:00pm 13.8 6.1 -0.3 38 5.9 WNW 30 48 16 26 1011.0 1011.0 0.0
18/04:30pm 14.5 5.7 -1.2 34 6.4 WNW 35 59 19 32 1010.4 1010.4 0.0
18/04:02pm 15.8 8.4 -0.8 32 7.0 WNW 28 46 15 25 1009.9 1009.9 0.0
18/04:00pm 15.9 8.5 -0.8 32 7.0 W 28 46 15 25 1009.9 1009.9 0.0
18/03:40pm 16.4 8.9 -1.2 30 7.4 W 28 48 15 26 1009.9 1009.9 0.0
18/03:30pm 16.3 9.6 -1.3 30 7.3 W 24 39 13 21 1009.8 1009.8 0.0
18/03:05pm 16.8 9.2 -2.3 27 7.8 W 28 56 15 30 1009.8 1009.8 0.0
18/03:00pm 17.2 9.8 -0.5 30 7.6 W 28 39 15 21 1009.7 1009.7 0.0
18/02:33pm 16.0 8.4 -2.0 29 7.4 W 28 52 15 28 1009.5 1009.5 0.0
18/02:30pm 16.3 9.5 -1.7 29 7.4 W 24 52 13 28 1009.4 1009.4 0.0
18/02:00pm 16.5 7.6 -1.6 29 7.5 WNW 35 59 19 32 1009.3 1009.3 0.0
18/01:30pm 17.0 8.6 -2.1 27 7.9 WNW 32 63 17 34 1009.0 1009.0 0.0
18/01:00pm 17.0 9.0 -2.1 27 7.9 W 30 54 16 29 1009.2 1009.2 0.0
18/12:30pm 16.5 6.0 -2.5 27 7.7 WNW 43 67 23 36 1009.5 1009.5 0.0
18/12:00pm 17.0 9.2 -1.1 29 7.6 WNW 30 59 16 32 1009.5 1009.5 0.0
18/11:30am 16.5 7.7 -1.1 30 7.4 WNW 35 61 19 33 1009.9 1009.9 0.0
18/11:13am 16.7 9.2 -1.4 29 7.6 W 28 50 15 27 1010.1 1010.1 0.0
18/11:09am 17.2 8.9 -1.4 28 7.8 WNW 32 56 17 30 1010.2 1010.2 0.0
18/11:04am 17.0 7.8 -1.6 28 7.8 WNW 37 56 20 30 1010.2 1010.2 0.0
18/11:00am 16.3 6.7 -1.7 29 7.5 WNW 39 56 21 30 1010.0 1010.0 0.0
18/10:40am 16.3 8.5 -0.8 31 7.2 W 30 48 16 26 1010.1 1010.1 0.0
18/10:30am 16.2 8.8 -0.5 32 7.1 W 28 44 15 24 1010.3 1010.3 0.0
18/10:11am 15.8 8.5 0.0 34 6.7 WNW 28 46 15 25 1010.4 1010.4 0.0
18/10:00am 16.1 9.7 0.7 35 6.7 W 24 39 13 21 1010.4 1010.4 0.0
18/09:30am 16.1 8.9 1.0 36 6.6 W 28 43 15 23 1010.4 1010.4 0.0
18/09:02am 14.7 7.2 0.9 39 5.9 WNW 30 48 16 26 1010.5 1010.5 0.0
18/09:00am 15.4 7.9 1.5 39 6.1 WNW 30 46 16 25 1010.5 1010.5 0.0
18/08:57am 15.0 7.9 1.2 39 6.0 WNW 28 46 15 25 1010.5 1010.5 0.0
18/08:30am 14.7 8.0 1.6 41 5.7 W 26 48 14 26 1010.6 1010.6 0.0
18/08:00am 13.6 7.6 1.3 43 5.3 W 22 35 12 19 1010.3 1010.3 0.0
18/07:30am 13.6 7.6 0.9 42 5.4 WSW 22 43 12 23 1010.1 1010.1 0.0
18/07:18am 13.9 6.8 1.2 42 5.5 WSW 28 69 15 37 1010.0 1010.0 0.0
18/07:00am 13.6 8.3 1.9 45 5.1 WSW 19 35 10 19 1010.0 1010.0 0.0
18/06:30am 13.7 8.5 2.6 47 4.9 W 19 32 10 17 1009.7 1009.7 0.0
18/06:21am 12.9 9.4 3.6 53 4.2 W 11 26 6 14 1009.7 1009.7 0.0
18/06:00am 7.9 5.8 -0.8 54 3.4 CALM 0 0 0 0 1009.4 1009.4 0.0
18/05:30am 9.3 5.6 -0.3 51 3.8 NW 9 15 5 8 1008.7 1008.7 0.0
18/05:00am 11.0 6.9 -0.5 45 4.6 NNW 11 17 6 9 1008.1 1008.1 0.0
18/04:30am 11.6 7.1 -0.5 43 4.9 NW 13 19 7 10 1008.2 1008.2 0.0
18/04:00am 11.7 6.8 -0.4 43 4.9 NW 15 20 8 11 1008.0 1008.0 0.0
18/03:30am 11.9 7.0 -0.6 42 5.1 NW 15 19 8 10 1007.9 1007.9 0.0
18/03:00am 12.3 7.8 -0.6 41 5.3 NW 13 20 7 11 1008.1 1008.1 0.0
18/02:30am 12.8 7.9 -0.8 39 5.5 NW 15 26 8 14 1008.3 1008.3 0.0
18/02:00am 13.3 8.7 -0.7 38 5.8 NW 13 20 7 11 1008.4 1008.4 0.0
18/01:30am 13.5 8.9 -0.9 37 5.9 NW 13 20 7 11 1008.5 1008.5 0.0
18/01:00am 13.6 9.4 -0.8 37 5.9 NW 11 17 6 9 1008.8 1008.8 0.0
18/12:30am 14.2 10.4 -1.0 35 6.2 NW 9 17 5 9 1008.7 1008.7 0.0
18/12:00am 15.3 10.0 -0.9 33 6.8 NW 17 24 9 13 1008.7 1008.7 0.0
 
Date/Time
EST
Temp
°C
App
Temp
°C
Dew
Point
°C
Rel
Hum
%
Delta-T
°C
Wind Press
QNH
hPa
Press
MSL
hPa
Rain since
9am
mm
Dir  Spd
km/h
Gust
km/h
Spd
kts
Gust
kts
17/11:30pm 15.0 10.1 -0.7 34 6.5 NW 15 24 8 13 1008.7 1008.7 0.0
17/11:00pm 15.4 10.5 -0.4 34 6.7 NW 15 30 8 16 1008.6 1008.6 0.0
17/10:30pm 15.2 10.7 -0.5 34 6.6 NW 13 20 7 11 1008.8 1008.8 0.0
17/10:00pm 14.9 10.8 -0.4 35 6.4 NNW 11 15 6 8 1008.8 1008.8 0.0
17/09:30pm 12.9 9.1 1.6 46 4.9 N 11 13 6 7 1008.9 1008.9 0.0
17/09:00pm 9.2 7.3 0.6 55 3.5 CALM 0 0 0 0 1009.0 1009.0 0.0
17/08:30pm 9.8 7.4 -0.1 50 4.0 WSW 2 6 1 3 1008.9 1008.9 0.0
17/08:00pm 11.3 8.6 0.1 46 4.6 ESE 4 7 2 4 1008.7 1008.7 0.0
17/07:30pm 12.3 9.1 -0.6 41 5.2 E 6 7 3 4 1008.4 1008.4 0.0
17/07:00pm 13.8 10.4 -0.6 37 6.0 E 7 11 4 6 1008.0 1008.0 0.0
17/06:30pm 16.2 12.9 -1.4 30 7.3 NE 6 9 3 5 1007.7 1007.7 0.0
17/06:00pm 18.7 14.4 -1.7 25 8.7 NW 11 17 6 9 1007.3 1007.3 0.0
17/05:30pm 19.9 14.1 -1.8 23 9.3 NW 19 33 10 18 1007.0 1007.0 0.0
17/05:00pm 20.5 15.0 -1.9 22 9.6 NW 17 28 9 15 1006.8 1006.8 0.0
17/04:30pm 21.3 15.3 -1.9 21 10.0 NW 20 35 11 19 1006.5 1006.5 0.0
17/04:00pm 21.7 14.9 -2.2 20 10.3 NW 24 37 13 20 1006.2 1006.2 0.0
17/03:30pm 22.0 14.5 -1.3 21 10.2 WNW 28 43 15 23 1006.0 1006.0 0.0
17/03:12pm 22.0 14.4 -2.0 20 10.4 WNW 28 46 15 25 1006.1 1006.1 0.0
17/03:00pm 22.5 15.4 -0.9 21 10.4 NW 26 48 14 26 1006.2 1006.2 0.0
17/02:45pm 22.1 14.7 -0.6 22 10.1 NW 28 50 15 27 1006.2 1006.2 0.0
17/02:30pm 22.0 15.7 -0.7 22 10.1 NW 22 43 12 23 1006.2 1006.2 0.0
17/02:00pm 21.9 15.4 0.4 24 9.8 NW 24 48 13 26 1006.2 1006.2 0.0
17/01:30pm 21.4 14.7 1.7 27 9.1 NW 26 43 14 23 1006.7 1006.7 0.0
17/01:12pm 21.0 14.3 1.3 27 9.0 NW 26 46 14 25 1006.9 1006.9 0.0
17/01:00pm 21.4 14.8 2.2 28 9.0 NNW 26 44 14 24 1007.1 1007.1 0.0
17/12:47pm 21.4 14.4 2.2 28 9.0 NW 28 46 15 25 1007.1 1007.1 0.0
17/12:30pm 20.5 13.8 1.4 28 8.7 NW 26 39 14 21 1007.3 1007.3 0.0
17/12:00pm 20.6 14.5 2.9 31 8.4 NW 24 41 13 22 1007.9 1007.9 0.0
17/11:30am 19.6 14.1 2.0 31 8.1 NW 20 43 11 23 1008.5 1008.5 0.0
17/11:00am 19.1 13.3 2.5 33 7.7 NW 22 41 12 22 1009.1 1009.1 0.0
17/10:30am 18.0 11.8 2.3 35 7.2 NW 24 41 13 22 1009.6 1009.6 0.0
17/10:00am 17.4 11.2 2.2 36 6.9 NW 24 35 13 19 1010.0 1010.0 0.0
17/09:30am 17.2 12.8 4.9 44 5.9 NW 17 24 9 13 1010.1 1010.1 0.0
17/09:00am 15.3 10.5 4.4 48 5.1 NW 19 24 10 13 1010.2 1010.2 0.0
17/08:30am 14.0 8.8 3.5 49 4.8 NW 20 33 11 18 1010.3 1010.3 0.0
17/08:00am 13.3 8.1 3.4 51 4.5 NW 20 32 11 17 1010.1 1010.1 0.0
17/07:30am 12.4 7.3 3.1 53 4.1 NW 19 28 10 15 1010.0 1010.0 0.0
17/07:00am 11.7 6.5 2.7 54 3.9 NW 19 30 10 16 1009.7 1009.7 0.0
17/06:30am 11.6 6.4 2.6 54 3.9 NW 19 32 10 17 1009.3 1009.3 0.0
17/06:00am 11.6 6.4 2.6 54 3.9 NW 19 30 10 16 1009.0 1009.0 0.0
17/05:30am 11.3 6.5 2.6 55 3.8 NW 17 26 9 14 1008.8 1008.8 0.0
17/05:00am 11.3 6.5 2.6 55 3.8 NW 17 24 9 13 1008.5 1008.5 0.0
17/04:30am 10.8 6.3 2.4 56 3.6 NW 15 19 8 10 1008.4 1008.4 0.0
17/04:00am 10.9 6.8 2.2 55 3.7 NW 13 19 7 10 1008.3 1008.3 0.0
17/03:30am 11.6 7.5 2.4 53 4.0 NW 13 20 7 11 1008.2 1008.2 0.0
17/03:00am 12.4 7.5 2.0 49 4.5 NW 17 24 9 13 1008.3 1008.3 0.0

Other Formats:

Comma delimited format used in spreadsheet applications
http://www.bom.gov.au/fwo/IDN60801/IDN60801.95771.axf

JavaScript Object Notation format (JSON) in row-major order
http://www.bom.gov.au/fwo/IDN60801/IDN60801.95771.json